sensor_id;sensor_type;location;lat;lon;timestamp;P1;durP1;ratioP1;P2;durP2;ratioP2
14907;SDS011;7545;52.092;7.006;2023-02-03T00:00:51;13.27;;;5.17;;
14907;SDS011;7545;52.092;7.006;2023-02-03T00:03:17;13.63;;;5.83;;
14907;SDS011;7545;52.092;7.006;2023-02-03T00:05:42;8.33;;;5.27;;
14907;SDS011;7545;52.092;7.006;2023-02-03T00:08:09;9.33;;;5.33;;
14907;SDS011;7545;52.092;7.006;2023-02-03T00:10:35;8.20;;;4.90;;
14907;SDS011;7545;52.092;7.006;2023-02-03T00:13:02;14.57;;;5.50;;
14907;SDS011;7545;52.092;7.006;2023-02-03T00:15:28;11.60;;;5.50;;
14907;SDS011;7545;52.092;7.006;2023-02-03T00:17:54;7.87;;;4.57;;
14907;SDS011;7545;52.092;7.006;2023-02-03T00:20:19;13.37;;;5.17;;
14907;SDS011;7545;52.092;7.006;2023-02-03T00:22:46;11.23;;;5.07;;
14907;SDS011;7545;52.092;7.006;2023-02-03T00:25:12;8.50;;;5.03;;
14907;SDS011;7545;52.092;7.006;2023-02-03T00:27:37;8.57;;;5.13;;
14907;SDS011;7545;52.092;7.006;2023-02-03T00:30:04;10.20;;;4.97;;
14907;SDS011;7545;52.092;7.006;2023-02-03T00:32:30;12.50;;;5.13;;
14907;SDS011;7545;52.092;7.006;2023-02-03T00:34:55;10.07;;;5.40;;
14907;SDS011;7545;52.092;7.006;2023-02-03T00:37:21;15.47;;;5.13;;
14907;SDS011;7545;52.092;7.006;2023-02-03T00:39:47;9.70;;;4.93;;
14907;SDS011;7545;52.092;7.006;2023-02-03T00:42:13;13.67;;;5.50;;
14907;SDS011;7545;52.092;7.006;2023-02-03T00:44:39;12.70;;;5.17;;
14907;SDS011;7545;52.092;7.006;2023-02-03T00:47:05;13.30;;;4.80;;
14907;SDS011;7545;52.092;7.006;2023-02-03T00:49:30;11.97;;;4.87;;
14907;SDS011;7545;52.092;7.006;2023-02-03T00:51:56;11.63;;;5.13;;
14907;SDS011;7545;52.092;7.006;2023-02-03T00:54:21;12.97;;;4.33;;
14907;SDS011;7545;52.092;7.006;2023-02-03T00:56:47;15.20;;;4.30;;
14907;SDS011;7545;52.092;7.006;2023-02-03T00:59:13;11.20;;;3.93;;
14907;SDS011;7545;52.092;7.006;2023-02-03T01:01:38;6.73;;;4.10;;
14907;SDS011;7545;52.092;7.006;2023-02-03T01:04:04;12.17;;;5.50;;
14907;SDS011;7545;52.092;7.006;2023-02-03T01:06:29;11.33;;;4.80;;
14907;SDS011;7545;52.092;7.006;2023-02-03T01:08:55;7.60;;;4.03;;
14907;SDS011;7545;52.092;7.006;2023-02-03T01:11:22;11.10;;;3.67;;
14907;SDS011;7545;52.092;7.006;2023-02-03T01:13:49;9.03;;;4.20;;
14907;SDS011;7545;52.092;7.006;2023-02-03T01:16:16;9.77;;;3.90;;
14907;SDS011;7545;52.092;7.006;2023-02-03T01:18:43;14.27;;;4.03;;
14907;SDS011;7545;52.092;7.006;2023-02-03T01:21:11;12.67;;;4.60;;
14907;SDS011;7545;52.092;7.006;2023-02-03T01:23:41;8.20;;;3.20;;
14907;SDS011;7545;52.092;7.006;2023-02-03T01:26:08;13.07;;;4.57;;
14907;SDS011;7545;52.092;7.006;2023-02-03T01:28:36;10.73;;;3.87;;
14907;SDS011;7545;52.092;7.006;2023-02-03T01:33:37;11.17;;;3.60;;
14907;SDS011;7545;52.092;7.006;2023-02-03T01:36:07;10.20;;;3.77;;
14907;SDS011;7545;52.092;7.006;2023-02-03T01:38:33;15.83;;;4.67;;
14907;SDS011;7545;52.092;7.006;2023-02-03T01:40:59;13.03;;;3.77;;
14907;SDS011;7545;52.092;7.006;2023-02-03T01:43:32;6.43;;;3.37;;
14907;SDS011;7545;52.092;7.006;2023-02-03T01:45:59;6.87;;;3.47;;
14907;SDS011;7545;52.092;7.006;2023-02-03T01:48:31;14.27;;;3.97;;
14907;SDS011;7545;52.092;7.006;2023-02-03T01:51:00;12.67;;;3.93;;
14907;SDS011;7545;52.092;7.006;2023-02-03T01:53:27;8.10;;;3.80;;
14907;SDS011;7545;52.092;7.006;2023-02-03T01:55:53;10.87;;;3.63;;
14907;SDS011;7545;52.092;7.006;2023-02-03T01:58:22;13.87;;;4.40;;
14907;SDS011;7545;52.092;7.006;2023-02-03T02:00:50;9.03;;;3.57;;
14907;SDS011;7545;52.092;7.006;2023-02-03T02:03:18;12.03;;;4.13;;
14907;SDS011;7545;52.092;7.006;2023-02-03T02:05:48;8.50;;;3.40;;
14907;SDS011;7545;52.092;7.006;2023-02-03T02:08:24;8.93;;;4.10;;
14907;SDS011;7545;52.092;7.006;2023-02-03T02:10:50;8.80;;;3.97;;
14907;SDS011;7545;52.092;7.006;2023-02-03T02:13:17;11.63;;;4.33;;
14907;SDS011;7545;52.092;7.006;2023-02-03T02:15:48;7.93;;;4.20;;
14907;SDS011;7545;52.092;7.006;2023-02-03T02:18:24;9.67;;;4.20;;
14907;SDS011;7545;52.092;7.006;2023-02-03T02:21:21;6.83;;;3.47;;
14907;SDS011;7545;52.092;7.006;2023-02-03T02:27:01;5.63;;;4.17;;
14907;SDS011;7545;52.092;7.006;2023-02-03T02:32:09;7.47;;;3.63;;
14907;SDS011;7545;52.092;7.006;2023-02-03T02:43:20;10.07;;;3.63;;
14907;SDS011;7545;52.092;7.006;2023-02-03T02:45:50;9.97;;;3.20;;
14907;SDS011;7545;52.092;7.006;2023-02-03T02:48:20;9.03;;;3.37;;
14907;SDS011;7545;52.092;7.006;2023-02-03T02:50:47;11.37;;;3.73;;
14907;SDS011;7545;52.092;7.006;2023-02-03T02:53:15;7.47;;;3.23;;
14907;SDS011;7545;52.092;7.006;2023-02-03T02:55:45;16.30;;;3.70;;
14907;SDS011;7545;52.092;7.006;2023-02-03T02:58:12;9.27;;;2.90;;
14907;SDS011;7545;52.092;7.006;2023-02-03T03:00:40;10.30;;;3.13;;
14907;SDS011;7545;52.092;7.006;2023-02-03T03:03:29;11.53;;;3.77;;
14907;SDS011;7545;52.092;7.006;2023-02-03T03:05:58;8.07;;;3.90;;
14907;SDS011;7545;52.092;7.006;2023-02-03T03:08:32;12.23;;;3.00;;
14907;SDS011;7545;52.092;7.006;2023-02-03T03:11:20;12.03;;;2.50;;
14907;SDS011;7545;52.092;7.006;2023-02-03T03:13:51;10.73;;;2.77;;
14907;SDS011;7545;52.092;7.006;2023-02-03T03:16:22;8.03;;;3.13;;
14907;SDS011;7545;52.092;7.006;2023-02-03T03:18:52;9.83;;;3.37;;
14907;SDS011;7545;52.092;7.006;2023-02-03T03:21:41;7.17;;;2.20;;
14907;SDS011;7545;52.092;7.006;2023-02-03T03:24:13;6.83;;;2.17;;
14907;SDS011;7545;52.092;7.006;2023-02-03T03:26:45;4.67;;;2.07;;
14907;SDS011;7545;52.092;7.006;2023-02-03T03:29:21;5.80;;;2.23;;
14907;SDS011;7545;52.092;7.006;2023-02-03T03:31:52;11.03;;;3.03;;
14907;SDS011;7545;52.092;7.006;2023-02-03T03:34:18;8.63;;;1.93;;
14907;SDS011;7545;52.092;7.006;2023-02-03T03:36:49;8.23;;;3.50;;
14907;SDS011;7545;52.092;7.006;2023-02-03T03:39:24;5.33;;;2.30;;
14907;SDS011;7545;52.092;7.006;2023-02-03T03:44:38;8.40;;;2.30;;
14907;SDS011;7545;52.092;7.006;2023-02-03T03:47:14;6.80;;;2.57;;
14907;SDS011;7545;52.092;7.006;2023-02-03T03:49:41;7.80;;;3.30;;
14907;SDS011;7545;52.092;7.006;2023-02-03T03:52:09;7.37;;;2.57;;
14907;SDS011;7545;52.092;7.006;2023-02-03T03:54:38;5.70;;;2.40;;
14907;SDS011;7545;52.092;7.006;2023-02-03T03:57:09;6.10;;;2.10;;
14907;SDS011;7545;52.092;7.006;2023-02-03T03:59:39;3.83;;;1.80;;
14907;SDS011;7545;52.092;7.006;2023-02-03T04:02:08;11.13;;;2.40;;
14907;SDS011;7545;52.092;7.006;2023-02-03T04:04:36;5.40;;;2.23;;
14907;SDS011;7545;52.092;7.006;2023-02-03T04:07:03;10.83;;;2.20;;
14907;SDS011;7545;52.092;7.006;2023-02-03T04:09:29;6.57;;;2.70;;
14907;SDS011;7545;52.092;7.006;2023-02-03T04:11:54;7.87;;;2.27;;
14907;SDS011;7545;52.092;7.006;2023-02-03T04:14:29;6.97;;;1.77;;
14907;SDS011;7545;52.092;7.006;2023-02-03T04:16:59;6.00;;;2.00;;
14907;SDS011;7545;52.092;7.006;2023-02-03T04:19:25;9.57;;;2.23;;
14907;SDS011;7545;52.092;7.006;2023-02-03T04:21:51;4.53;;;1.63;;
14907;SDS011;7545;52.092;7.006;2023-02-03T04:24:17;5.20;;;2.50;;
14907;SDS011;7545;52.092;7.006;2023-02-03T04:26:43;5.63;;;2.23;;
14907;SDS011;7545;52.092;7.006;2023-02-03T04:29:08;5.87;;;2.47;;
14907;SDS011;7545;52.092;7.006;2023-02-03T04:31:34;5.40;;;1.87;;
14907;SDS011;7545;52.092;7.006;2023-02-03T04:34:00;7.67;;;2.10;;
14907;SDS011;7545;52.092;7.006;2023-02-03T04:36:25;3.17;;;1.90;;
14907;SDS011;7545;52.092;7.006;2023-02-03T04:38:51;7.43;;;3.80;;
14907;SDS011;7545;52.092;7.006;2023-02-03T04:41:17;5.67;;;2.13;;
14907;SDS011;7545;52.092;7.006;2023-02-03T04:43:42;8.47;;;2.20;;
14907;SDS011;7545;52.092;7.006;2023-02-03T04:46:08;9.20;;;2.20;;
14907;SDS011;7545;52.092;7.006;2023-02-03T04:48:34;7.90;;;2.63;;
14907;SDS011;7545;52.092;7.006;2023-02-03T04:51:00;6.70;;;2.53;;
14907;SDS011;7545;52.092;7.006;2023-02-03T04:53:30;7.37;;;2.70;;
14907;SDS011;7545;52.092;7.006;2023-02-03T04:55:57;4.57;;;2.00;;
14907;SDS011;7545;52.092;7.006;2023-02-03T04:58:23;11.30;;;2.53;;
14907;SDS011;7545;52.092;7.006;2023-02-03T05:00:50;4.77;;;2.37;;
14907;SDS011;7545;52.092;7.006;2023-02-03T05:03:15;6.67;;;2.00;;
14907;SDS011;7545;52.092;7.006;2023-02-03T05:05:41;6.63;;;2.57;;
14907;SDS011;7545;52.092;7.006;2023-02-03T05:08:07;6.60;;;2.40;;
14907;SDS011;7545;52.092;7.006;2023-02-03T05:10:32;7.77;;;2.10;;
14907;SDS011;7545;52.092;7.006;2023-02-03T05:12:58;5.37;;;2.50;;
14907;SDS011;7545;52.092;7.006;2023-02-03T05:15:23;7.60;;;2.50;;
14907;SDS011;7545;52.092;7.006;2023-02-03T05:17:53;6.57;;;2.50;;
14907;SDS011;7545;52.092;7.006;2023-02-03T05:20:19;4.77;;;2.50;;
14907;SDS011;7545;52.092;7.006;2023-02-03T05:22:45;4.10;;;1.80;;
14907;SDS011;7545;52.092;7.006;2023-02-03T05:25:11;4.07;;;2.23;;
14907;SDS011;7545;52.092;7.006;2023-02-03T05:27:37;7.03;;;2.43;;
14907;SDS011;7545;52.092;7.006;2023-02-03T05:30:04;3.90;;;2.00;;
14907;SDS011;7545;52.092;7.006;2023-02-03T05:32:30;9.30;;;2.43;;
14907;SDS011;7545;52.092;7.006;2023-02-03T05:34:56;10.07;;;2.50;;
14907;SDS011;7545;52.092;7.006;2023-02-03T05:37:21;5.37;;;1.90;;
14907;SDS011;7545;52.092;7.006;2023-02-03T05:39:47;7.90;;;2.60;;
14907;SDS011;7545;52.092;7.006;2023-02-03T05:42:13;5.90;;;2.30;;
14907;SDS011;7545;52.092;7.006;2023-02-03T05:44:39;5.23;;;2.70;;
14907;SDS011;7545;52.092;7.006;2023-02-03T05:47:05;5.03;;;3.03;;
14907;SDS011;7545;52.092;7.006;2023-02-03T05:49:30;6.97;;;2.60;;
14907;SDS011;7545;52.092;7.006;2023-02-03T05:51:56;9.73;;;2.93;;
14907;SDS011;7545;52.092;7.006;2023-02-03T05:54:22;7.23;;;2.67;;
14907;SDS011;7545;52.092;7.006;2023-02-03T05:56:47;8.73;;;2.80;;
14907;SDS011;7545;52.092;7.006;2023-02-03T05:59:13;7.20;;;2.87;;
14907;SDS011;7545;52.092;7.006;2023-02-03T06:01:39;6.10;;;2.77;;
14907;SDS011;7545;52.092;7.006;2023-02-03T06:04:05;5.20;;;2.57;;
14907;SDS011;7545;52.092;7.006;2023-02-03T06:06:31;6.40;;;2.77;;
14907;SDS011;7545;52.092;7.006;2023-02-03T06:09:01;6.17;;;3.60;;
14907;SDS011;7545;52.092;7.006;2023-02-03T06:11:29;8.10;;;2.77;;
14907;SDS011;7545;52.092;7.006;2023-02-03T06:13:55;7.57;;;2.93;;
14907;SDS011;7545;52.092;7.006;2023-02-03T06:16:23;10.13;;;2.80;;
14907;SDS011;7545;52.092;7.006;2023-02-03T06:18:49;5.77;;;2.97;;
14907;SDS011;7545;52.092;7.006;2023-02-03T06:21:16;5.00;;;2.47;;
14907;SDS011;7545;52.092;7.006;2023-02-03T06:23:42;7.33;;;2.57;;
14907;SDS011;7545;52.092;7.006;2023-02-03T06:26:07;5.77;;;2.70;;
14907;SDS011;7545;52.092;7.006;2023-02-03T06:28:33;5.70;;;2.43;;
14907;SDS011;7545;52.092;7.006;2023-02-03T06:30:59;7.13;;;3.00;;
14907;SDS011;7545;52.092;7.006;2023-02-03T06:33:24;7.50;;;3.07;;
14907;SDS011;7545;52.092;7.006;2023-02-03T06:35:50;8.13;;;2.60;;
14907;SDS011;7545;52.092;7.006;2023-02-03T06:38:17;5.60;;;2.03;;
14907;SDS011;7545;52.092;7.006;2023-02-03T06:40:45;6.07;;;2.50;;
14907;SDS011;7545;52.092;7.006;2023-02-03T06:43:11;4.10;;;2.77;;
14907;SDS011;7545;52.092;7.006;2023-02-03T06:45:37;8.87;;;2.67;;
14907;SDS011;7545;52.092;7.006;2023-02-03T06:48:02;3.20;;;2.20;;
14907;SDS011;7545;52.092;7.006;2023-02-03T06:50:28;7.30;;;2.40;;
14907;SDS011;7545;52.092;7.006;2023-02-03T06:52:53;4.83;;;2.60;;
14907;SDS011;7545;52.092;7.006;2023-02-03T06:55:19;7.07;;;2.53;;
14907;SDS011;7545;52.092;7.006;2023-02-03T06:57:46;5.77;;;2.73;;
14907;SDS011;7545;52.092;7.006;2023-02-03T07:00:13;7.17;;;2.53;;
14907;SDS011;7545;52.092;7.006;2023-02-03T07:02:40;6.93;;;2.53;;
14907;SDS011;7545;52.092;7.006;2023-02-03T07:05:06;13.37;;;2.97;;
14907;SDS011;7545;52.092;7.006;2023-02-03T07:07:32;8.03;;;3.07;;
14907;SDS011;7545;52.092;7.006;2023-02-03T07:09:58;5.20;;;2.57;;
14907;SDS011;7545;52.092;7.006;2023-02-03T07:12:26;8.33;;;3.30;;
14907;SDS011;7545;52.092;7.006;2023-02-03T07:14:52;3.97;;;2.17;;
14907;SDS011;7545;52.092;7.006;2023-02-03T07:17:18;10.07;;;3.00;;
14907;SDS011;7545;52.092;7.006;2023-02-03T07:19:44;4.23;;;2.33;;
14907;SDS011;7545;52.092;7.006;2023-02-03T07:22:09;5.57;;;2.77;;
14907;SDS011;7545;52.092;7.006;2023-02-03T07:24:35;7.23;;;2.57;;
14907;SDS011;7545;52.092;7.006;2023-02-03T07:27:01;6.77;;;2.53;;
14907;SDS011;7545;52.092;7.006;2023-02-03T07:29:27;7.90;;;2.10;;
14907;SDS011;7545;52.092;7.006;2023-02-03T07:31:52;7.53;;;2.60;;
14907;SDS011;7545;52.092;7.006;2023-02-03T07:34:18;9.93;;;2.80;;
14907;SDS011;7545;52.092;7.006;2023-02-03T07:36:44;6.10;;;2.20;;
14907;SDS011;7545;52.092;7.006;2023-02-03T07:39:09;6.70;;;3.07;;
14907;SDS011;7545;52.092;7.006;2023-02-03T07:41:35;7.00;;;2.73;;
14907;SDS011;7545;52.092;7.006;2023-02-03T07:44:01;7.77;;;3.00;;
14907;SDS011;7545;52.092;7.006;2023-02-03T07:46:26;7.20;;;2.27;;
14907;SDS011;7545;52.092;7.006;2023-02-03T07:48:52;8.70;;;2.70;;
14907;SDS011;7545;52.092;7.006;2023-02-03T07:51:18;5.77;;;2.50;;
14907;SDS011;7545;52.092;7.006;2023-02-03T07:53:43;10.53;;;3.00;;
14907;SDS011;7545;52.092;7.006;2023-02-03T07:56:10;7.93;;;2.50;;
14907;SDS011;7545;52.092;7.006;2023-02-03T07:58:36;8.67;;;2.67;;
14907;SDS011;7545;52.092;7.006;2023-02-03T08:01:08;7.47;;;2.77;;
14907;SDS011;7545;52.092;7.006;2023-02-03T08:03:35;4.23;;;2.47;;
14907;SDS011;7545;52.092;7.006;2023-02-03T08:06:01;8.60;;;3.77;;
14907;SDS011;7545;52.092;7.006;2023-02-03T08:08:26;9.03;;;2.73;;
14907;SDS011;7545;52.092;7.006;2023-02-03T08:10:53;5.27;;;2.70;;
14907;SDS011;7545;52.092;7.006;2023-02-03T08:13:20;5.80;;;2.87;;
14907;SDS011;7545;52.092;7.006;2023-02-03T08:15:46;2.93;;;2.37;;
14907;SDS011;7545;52.092;7.006;2023-02-03T08:18:12;7.93;;;2.87;;
14907;SDS011;7545;52.092;7.006;2023-02-03T08:20:37;6.03;;;2.50;;
14907;SDS011;7545;52.092;7.006;2023-02-03T08:23:03;6.40;;;2.70;;
14907;SDS011;7545;52.092;7.006;2023-02-03T08:25:29;10.20;;;3.43;;
14907;SDS011;7545;52.092;7.006;2023-02-03T08:27:55;9.77;;;3.40;;
14907;SDS011;7545;52.092;7.006;2023-02-03T08:30:21;6.77;;;2.70;;
14907;SDS011;7545;52.092;7.006;2023-02-03T08:32:46;10.30;;;4.10;;
14907;SDS011;7545;52.092;7.006;2023-02-03T08:35:12;7.00;;;3.33;;
14907;SDS011;7545;52.092;7.006;2023-02-03T08:37:38;6.50;;;2.60;;
14907;SDS011;7545;52.092;7.006;2023-02-03T08:40:04;10.40;;;4.87;;
14907;SDS011;7545;52.092;7.006;2023-02-03T08:42:30;5.27;;;2.00;;
14907;SDS011;7545;52.092;7.006;2023-02-03T08:44:56;6.00;;;2.40;;
14907;SDS011;7545;52.092;7.006;2023-02-03T08:47:21;6.33;;;2.37;;
14907;SDS011;7545;52.092;7.006;2023-02-03T08:49:47;8.07;;;2.60;;
14907;SDS011;7545;52.092;7.006;2023-02-03T08:52:13;7.67;;;4.07;;
14907;SDS011;7545;52.092;7.006;2023-02-03T08:54:39;8.53;;;2.57;;
14907;SDS011;7545;52.092;7.006;2023-02-03T08:57:05;5.93;;;2.60;;
14907;SDS011;7545;52.092;7.006;2023-02-03T08:59:32;5.90;;;2.37;;
14907;SDS011;7545;52.092;7.006;2023-02-03T09:02:02;8.73;;;2.57;;
14907;SDS011;7545;52.092;7.006;2023-02-03T09:04:28;5.33;;;2.17;;
14907;SDS011;7545;52.092;7.006;2023-02-03T09:06:54;6.80;;;2.43;;
14907;SDS011;7545;52.092;7.006;2023-02-03T09:09:20;6.80;;;2.33;;
14907;SDS011;7545;52.092;7.006;2023-02-03T09:11:46;4.93;;;2.23;;
14907;SDS011;7545;52.092;7.006;2023-02-03T09:14:12;4.50;;;2.43;;
14907;SDS011;7545;52.092;7.006;2023-02-03T09:16:38;6.23;;;2.67;;
14907;SDS011;7545;52.092;7.006;2023-02-03T09:19:04;4.13;;;2.23;;
14907;SDS011;7545;52.092;7.006;2023-02-03T09:21:29;10.23;;;2.27;;
14907;SDS011;7545;52.092;7.006;2023-02-03T09:23:55;6.33;;;2.30;;
14907;SDS011;7545;52.092;7.006;2023-02-03T09:26:24;7.73;;;2.43;;
14907;SDS011;7545;52.092;7.006;2023-02-03T09:28:49;3.13;;;1.73;;
14907;SDS011;7545;52.092;7.006;2023-02-03T09:31:16;6.53;;;1.67;;
14907;SDS011;7545;52.092;7.006;2023-02-03T09:33:43;7.53;;;2.03;;
14907;SDS011;7545;52.092;7.006;2023-02-03T09:36:09;6.03;;;2.40;;
14907;SDS011;7545;52.092;7.006;2023-02-03T09:38:35;7.50;;;2.03;;
14907;SDS011;7545;52.092;7.006;2023-02-03T09:46:33;6.20;;;2.83;;
14907;SDS011;7545;52.092;7.006;2023-02-03T09:49:13;8.03;;;2.13;;
14907;SDS011;7545;52.092;7.006;2023-02-03T09:51:43;8.97;;;2.40;;
14907;SDS011;7545;52.092;7.006;2023-02-03T09:54:18;12.30;;;2.30;;
14907;SDS011;7545;52.092;7.006;2023-02-03T09:56:51;7.40;;;1.97;;
14907;SDS011;7545;52.092;7.006;2023-02-03T09:59:19;4.53;;;1.77;;
14907;SDS011;7545;52.092;7.006;2023-02-03T10:01:52;10.10;;;2.70;;
14907;SDS011;7545;52.092;7.006;2023-02-03T10:04:36;5.47;;;2.27;;
14907;SDS011;7545;52.092;7.006;2023-02-03T10:07:14;6.60;;;1.93;;
14907;SDS011;7545;52.092;7.006;2023-02-03T10:17:53;6.07;;;2.03;;
14907;SDS011;7545;52.092;7.006;2023-02-03T10:20:24;9.57;;;2.53;;
14907;SDS011;7545;52.092;7.006;2023-02-03T10:23:00;8.10;;;2.07;;
14907;SDS011;7545;52.092;7.006;2023-02-03T10:25:32;9.07;;;2.30;;
14907;SDS011;7545;52.092;7.006;2023-02-03T10:28:19;5.13;;;2.00;;
14907;SDS011;7545;52.092;7.006;2023-02-03T10:33:20;6.53;;;2.20;;
14907;SDS011;7545;52.092;7.006;2023-02-03T10:36:32;9.90;;;3.07;;
14907;SDS011;7545;52.092;7.006;2023-02-03T10:41:10;5.35;;;2.38;;
14907;SDS011;7545;52.092;7.006;2023-02-03T10:43:35;8.10;;;2.00;;
14907;SDS011;7545;52.092;7.006;2023-02-03T10:46:26;4.77;;;1.90;;
14907;SDS011;7545;52.092;7.006;2023-02-03T10:48:54;5.93;;;3.37;;
14907;SDS011;7545;52.092;7.006;2023-02-03T10:51:35;4.10;;;2.00;;
14907;SDS011;7545;52.092;7.006;2023-02-03T10:54:04;9.90;;;2.33;;
14907;SDS011;7545;52.092;7.006;2023-02-03T10:56:49;4.10;;;2.03;;
14907;SDS011;7545;52.092;7.006;2023-02-03T10:59:24;7.70;;;2.13;;
14907;SDS011;7545;52.092;7.006;2023-02-03T11:01:53;4.23;;;1.87;;
14907;SDS011;7545;52.092;7.006;2023-02-03T11:04:24;6.03;;;2.73;;
14907;SDS011;7545;52.092;7.006;2023-02-03T11:07:05;4.83;;;1.97;;
14907;SDS011;7545;52.092;7.006;2023-02-03T11:09:45;4.80;;;2.37;;
14907;SDS011;7545;52.092;7.006;2023-02-03T11:14:39;5.47;;;2.03;;
14907;SDS011;7545;52.092;7.006;2023-02-03T11:17:11;4.37;;;2.00;;
14907;SDS011;7545;52.092;7.006;2023-02-03T11:19:43;4.97;;;2.20;;
14907;SDS011;7545;52.092;7.006;2023-02-03T11:22:11;6.38;;;2.40;;
14907;SDS011;7545;52.092;7.006;2023-02-03T11:24:54;7.33;;;3.00;;
14907;SDS011;7545;52.092;7.006;2023-02-03T11:27:20;7.23;;;2.60;;
14907;SDS011;7545;52.092;7.006;2023-02-03T11:29:49;4.67;;;2.50;;
14907;SDS011;7545;52.092;7.006;2023-02-03T11:35:25;5.10;;;2.20;;
14907;SDS011;7545;52.092;7.006;2023-02-03T11:37:52;5.17;;;2.43;;
14907;SDS011;7545;52.092;7.006;2023-02-03T11:40:23;5.77;;;2.43;;
14907;SDS011;7545;52.092;7.006;2023-02-03T11:56:45;9.10;;;2.07;;
14907;SDS011;7545;52.092;7.006;2023-02-03T12:04:28;6.93;;;1.90;;
14907;SDS011;7545;52.092;7.006;2023-02-03T12:15:39;10.50;;;3.00;;
14907;SDS011;7545;52.092;7.006;2023-02-03T12:26:36;13.27;;;3.17;;
14907;SDS011;7545;52.092;7.006;2023-02-03T12:29:15;10.65;;;2.28;;
14907;SDS011;7545;52.092;7.006;2023-02-03T12:34:53;9.53;;;2.60;;
14907;SDS011;7545;52.092;7.006;2023-02-03T12:37:27;9.60;;;2.33;;
14907;SDS011;7545;52.092;7.006;2023-02-03T12:40:20;10.83;;;3.63;;
14907;SDS011;7545;52.092;7.006;2023-02-03T12:42:54;9.03;;;3.23;;
14907;SDS011;7545;52.092;7.006;2023-02-03T12:45:28;14.55;;;2.38;;
14907;SDS011;7545;52.092;7.006;2023-02-03T12:48:02;11.73;;;2.80;;
14907;SDS011;7545;52.092;7.006;2023-02-03T12:50:43;10.70;;;4.80;;
14907;SDS011;7545;52.092;7.006;2023-02-03T12:53:22;10.85;;;3.00;;
14907;SDS011;7545;52.092;7.006;2023-02-03T12:55:54;9.47;;;2.93;;
14907;SDS011;7545;52.092;7.006;2023-02-03T12:58:32;12.90;;;3.23;;
14907;SDS011;7545;52.092;7.006;2023-02-03T13:01:04;8.23;;;2.23;;
14907;SDS011;7545;52.092;7.006;2023-02-03T13:04:09;9.10;;;3.33;;
14907;SDS011;7545;52.092;7.006;2023-02-03T13:12:02;14.03;;;3.40;;
14907;SDS011;7545;52.092;7.006;2023-02-03T13:17:47;15.50;;;2.67;;
14907;SDS011;7545;52.092;7.006;2023-02-03T13:20:20;16.67;;;3.47;;
14907;SDS011;7545;52.092;7.006;2023-02-03T13:22:49;13.85;;;3.42;;
14907;SDS011;7545;52.092;7.006;2023-02-03T13:44:04;17.30;;;3.80;;
14907;SDS011;7545;52.092;7.006;2023-02-03T13:46:36;16.67;;;4.90;;
14907;SDS011;7545;52.092;7.006;2023-02-03T13:49:03;23.73;;;5.45;;
14907;SDS011;7545;52.092;7.006;2023-02-03T13:51:34;13.93;;;3.95;;
14907;SDS011;7545;52.092;7.006;2023-02-03T13:54:11;15.77;;;3.33;;
14907;SDS011;7545;52.092;7.006;2023-02-03T13:56:41;13.98;;;4.40;;
14907;SDS011;7545;52.092;7.006;2023-02-03T14:01:42;11.07;;;2.77;;
14907;SDS011;7545;52.092;7.006;2023-02-03T14:09:37;11.20;;;2.30;;
14907;SDS011;7545;52.092;7.006;2023-02-03T14:14:40;16.50;;;2.93;;
14907;SDS011;7545;52.092;7.006;2023-02-03T14:17:08;10.67;;;3.00;;
14907;SDS011;7545;52.092;7.006;2023-02-03T14:19:57;18.13;;;3.90;;
14907;SDS011;7545;52.092;7.006;2023-02-03T14:22:23;13.43;;;3.43;;
14907;SDS011;7545;52.092;7.006;2023-02-03T14:24:51;14.40;;;2.97;;
14907;SDS011;7545;52.092;7.006;2023-02-03T14:27:27;10.87;;;3.43;;
14907;SDS011;7545;52.092;7.006;2023-02-03T14:30:07;9.50;;;3.20;;
14907;SDS011;7545;52.092;7.006;2023-02-03T14:33:08;12.57;;;3.20;;
14907;SDS011;7545;52.092;7.006;2023-02-03T14:35:31;18.17;;;3.97;;
14907;SDS011;7545;52.092;7.006;2023-02-03T14:38:02;17.93;;;2.87;;
14907;SDS011;7545;52.092;7.006;2023-02-03T14:49:12;15.77;;;4.27;;
14907;SDS011;7545;52.092;7.006;2023-02-03T14:54:43;17.10;;;3.13;;
14907;SDS011;7545;52.092;7.006;2023-02-03T15:03:14;19.80;;;3.57;;
14907;SDS011;7545;52.092;7.006;2023-02-03T15:05:48;15.13;;;3.13;;
14907;SDS011;7545;52.092;7.006;2023-02-03T15:08:32;14.20;;;3.57;;
14907;SDS011;7545;52.092;7.006;2023-02-03T15:13:56;19.90;;;3.43;;
14907;SDS011;7545;52.092;7.006;2023-02-03T15:16:49;15.27;;;4.07;;
14907;SDS011;7545;52.092;7.006;2023-02-03T15:19:26;27.30;;;5.30;;
14907;SDS011;7545;52.092;7.006;2023-02-03T15:21:55;16.83;;;3.77;;
14907;SDS011;7545;52.092;7.006;2023-02-03T15:24:21;17.57;;;3.27;;
14907;SDS011;7545;52.092;7.006;2023-02-03T15:26:49;15.77;;;4.13;;
14907;SDS011;7545;52.092;7.006;2023-02-03T15:29:27;24.00;;;4.37;;
14907;SDS011;7545;52.092;7.006;2023-02-03T15:31:56;18.33;;;3.70;;
14907;SDS011;7545;52.092;7.006;2023-02-03T15:34:35;9.70;;;3.10;;
14907;SDS011;7545;52.092;7.006;2023-02-03T15:37:13;15.50;;;3.73;;
14907;SDS011;7545;52.092;7.006;2023-02-03T15:40:07;15.00;;;3.20;;
14907;SDS011;7545;52.092;7.006;2023-02-03T15:53:16;15.47;;;3.30;;
14907;SDS011;7545;52.092;7.006;2023-02-03T15:55:44;13.87;;;3.20;;
14907;SDS011;7545;52.092;7.006;2023-02-03T15:58:25;15.87;;;3.63;;
14907;SDS011;7545;52.092;7.006;2023-02-03T16:00:54;17.40;;;3.53;;
14907;SDS011;7545;52.092;7.006;2023-02-03T16:09:25;15.47;;;3.47;;
14907;SDS011;7545;52.092;7.006;2023-02-03T16:12:15;15.77;;;3.23;;
14907;SDS011;7545;52.092;7.006;2023-02-03T16:14:46;19.07;;;3.83;;
14907;SDS011;7545;52.092;7.006;2023-02-03T16:20:37;14.63;;;4.33;;
14907;SDS011;7545;52.092;7.006;2023-02-03T16:23:00;12.50;;;3.60;;
14907;SDS011;7545;52.092;7.006;2023-02-03T16:25:25;12.57;;;5.23;;
14907;SDS011;7545;52.092;7.006;2023-02-03T16:30:58;8.50;;;3.10;;
14907;SDS011;7545;52.092;7.006;2023-02-03T16:33:55;14.87;;;3.97;;
14907;SDS011;7545;52.092;7.006;2023-02-03T16:36:40;19.30;;;4.17;;
14907;SDS011;7545;52.092;7.006;2023-02-03T16:39:25;16.97;;;4.87;;
14907;SDS011;7545;52.092;7.006;2023-02-03T16:42:14;13.17;;;4.17;;
14907;SDS011;7545;52.092;7.006;2023-02-03T16:45:00;15.17;;;4.80;;
14907;SDS011;7545;52.092;7.006;2023-02-03T16:47:45;12.67;;;3.80;;
14907;SDS011;7545;52.092;7.006;2023-02-03T16:50:29;17.57;;;4.00;;
14907;SDS011;7545;52.092;7.006;2023-02-03T16:53:18;13.47;;;3.60;;
14907;SDS011;7545;52.092;7.006;2023-02-03T16:55:46;20.73;;;4.50;;
14907;SDS011;7545;52.092;7.006;2023-02-03T16:58:12;11.70;;;3.33;;
14907;SDS011;7545;52.092;7.006;2023-02-03T17:00:39;19.47;;;5.30;;
14907;SDS011;7545;52.092;7.006;2023-02-03T17:03:06;15.10;;;4.10;;
14907;SDS011;7545;52.092;7.006;2023-02-03T17:05:40;21.13;;;5.83;;
14907;SDS011;7545;52.092;7.006;2023-02-03T17:08:07;16.43;;;4.83;;
14907;SDS011;7545;52.092;7.006;2023-02-03T17:10:34;17.23;;;4.37;;
14907;SDS011;7545;52.092;7.006;2023-02-03T17:13:01;18.63;;;5.17;;
14907;SDS011;7545;52.092;7.006;2023-02-03T17:15:27;18.60;;;5.57;;
14907;SDS011;7545;52.092;7.006;2023-02-03T17:17:52;13.67;;;4.80;;
14907;SDS011;7545;52.092;7.006;2023-02-03T17:20:18;13.97;;;4.70;;
14907;SDS011;7545;52.092;7.006;2023-02-03T17:22:44;15.40;;;3.33;;
14907;SDS011;7545;52.092;7.006;2023-02-03T17:25:10;19.83;;;3.70;;
14907;SDS011;7545;52.092;7.006;2023-02-03T17:27:35;12.33;;;3.20;;
14907;SDS011;7545;52.092;7.006;2023-02-03T17:30:01;14.07;;;3.50;;
14907;SDS011;7545;52.092;7.006;2023-02-03T17:32:27;11.23;;;3.07;;
14907;SDS011;7545;52.092;7.006;2023-02-03T17:34:53;16.03;;;3.27;;
14907;SDS011;7545;52.092;7.006;2023-02-03T17:37:19;15.27;;;4.43;;
14907;SDS011;7545;52.092;7.006;2023-02-03T17:39:44;10.73;;;2.80;;
14907;SDS011;7545;52.092;7.006;2023-02-03T17:42:10;14.23;;;2.90;;
14907;SDS011;7545;52.092;7.006;2023-02-03T17:44:35;18.03;;;5.53;;
14907;SDS011;7545;52.092;7.006;2023-02-03T17:47:01;21.40;;;7.50;;
14907;SDS011;7545;52.092;7.006;2023-02-03T17:49:27;19.00;;;4.40;;
14907;SDS011;7545;52.092;7.006;2023-02-03T17:51:53;11.47;;;3.63;;
14907;SDS011;7545;52.092;7.006;2023-02-03T17:54:19;14.00;;;3.87;;